Portada
METAR-TAF:

METAR-TAF

Aeroports :

Millinocket Municipal Airport

Millinocket, Maine, Estats Units d'Amèrica

latitud: 45-38-52N, longitud: 068-41-31W, altitud: 124 m

Observació

L'informe es va fer fa 1 hora i 0 minuts, a les 19:53 UTC
Vent 10 kt del Oest amb ràfegues de 16 kt
Temperatura 17°C
Humitat 59%
Pressió 1016 hPa
Visibilitat: 16.1 km
Cel cobert a una alçada de 4400 ft

METAR: KMLT 151953Z AUTO 28010G16KT 10SM OVC044 17/09 A2999 RMK AO2 SLP159 T01720094

Hora: 16:53 (20:53 UTC)


TAF: manca

Observacions i pronòstics meteorològics de més de 4000 aeroports (METAR i TAF).

Les estacions disponibles són els punts grocs i vermells al mapa.

Posi el ratolí al punt desitjat per veure el nom de l'estació.

Feu clic per veure les observacions i els pronòstics meteorològics.

Per canviar el mapa: feu clic els botons verds amb una creu de color negre per apropar; al botó verd amb un guió per allunyar la imatge; o en les fletxes verdes per a mapes adjacents.


METAR-TAF: